ADDS METAR Data INFO
IDs: Format: Raw Decoded Include TAF

Data at: 1717 UTC 23 Oct 2017

KLWT 231654Z AUTO 29018G29KT 10SM CLR 09/M04 A3044 RMK AO2 PK WND 31029/1649 SLP310 T00941044
KLWT 231554Z AUTO 28007KT 10SM CLR 06/M04 A3044 RMK AO2 SLP314 T00611044
KLWT 231454Z AUTO 24007KT 10SM CLR 03/M03 A3041 RMK AO2 SLP309 T00281033 53027
KLWT 231354Z AUTO 24009KT 10SM CLR 00/M06 A3037 RMK AO2 SLP300 T00001056
KLWT 231254Z AUTO 25010KT 10SM CLR 00/M06 A3034 RMK AO2 SLP287 T00001061
KLWT 231154Z AUTO 26007KT 10SM CLR 01/M06 A3032 RMK AO2 SLP276 T00111056 10078 20011 53024
KLWT 231054Z AUTO 28010KT 10SM CLR 04/M05 A3029 RMK AO2 SLP257 T00441050
KLWT 230954Z AUTO 30008KT 10SM CLR 04/M06 A3027 RMK AO2 SLP245 T00441056
KLWT 230854Z AUTO 32003KT 10SM CLR 03/M06 A3024 RMK AO2 SLP235 T00281061 53027
KLWT 230754Z AUTO 31004KT 10SM CLR 04/M06 A3020 RMK AO2 SLP220 T00441056
KLWT 230654Z AUTO 28015G23KT 10SM CLR 07/M06 A3017 RMK AO2 PK WND 28031/0603 SLP205 T00671061 401830056
KLWT 230554Z AUTO 28017G27KT 10SM CLR 08/M07 A3015 RMK AO2 PK WND 28032/0535 SLP198 T00781067 10106 20078 51034
KLWT 230454Z AUTO 28024G36KT 10SM CLR 08/M07 A3011 RMK AO2 PK WND 28036/0448 SLP188 T00781067
KLWT 230354Z AUTO 28020G34KT 10SM CLR 08/M06 A3008 RMK AO2 PK WND 28036/0315 SLP177 T00781061
KLWT 230254Z AUTO 29023G37KT 10SM CLR 08/M06 A3003 RMK AO2 PK WND 29039/0207 SLP162 T00831061 53038
KLWT 230154Z AUTO 28019G25KT 10SM CLR 08/M06 A2999 RMK AO2 PK WND 29034/0057 SLP149 T00831056
KLWT 230054Z AUTO 29027G37KT 10SM CLR 10/M06 A2994 RMK AO2 PK WND 30047/0014 SLP130 T01001061
KLWT 222354Z AUTO 29024G39KT 10SM CLR 11/M04 A2991 RMK AO2 PK WND 29047/2334 SLP116 T01061044 10183 20106 53043
KLWT 222254Z AUTO 30036G47KT 10SM SCT085 13/M01 A2985 RMK AO2 PK WND 30047/2253 SLP096 T01281006
KLWT 222154Z AUTO 29027G44KT 10SM BKN080 OVC095 16/M02 A2978 RMK AO2 PK WND 27050/2110 SLP069 T01561022
KLWT 222054Z AUTO 26043G53KT 10SM CLR 17/M02 A2976 RMK AO2 PK WND 26053/2052 PRESRR SLP060 T01671017 53002
KLWT 221954Z AUTO 27032G46KT 10SM FEW080 SCT095 18/M02 A2975 RMK AO2 PK WND 27047/1927 SLP057 T01781017
KLWT 221854Z AUTO 25032G40KT 10SM CLR 17/00 A2974 RMK AO2 PK WND 25045/1817 SLP056 T01720000
KLWT 221754Z AUTO 25031G39KT 10SM CLR 16/01 A2976 RMK AO2 PK WND 25042/1708 SLP063 T01560011 10156 20106 50002
KLWT 221654Z AUTO 24028G37KT 10SM FEW085 SCT120 14/01 A2976 RMK AO2 PK WND 24039/1556 SLP068 T01390006
KLWT 221554Z AUTO 24030G41KT 10SM OVC110 13/01 A2975 RMK AO2 PK WND 24041/1554 SLP070 T01280006
KLWT 221454Z AUTO 23026G31KT 10SM BKN110 12/00 A2975 RMK AO2 PK WND 23035/1438 SLP073 T01220000 55002
KLWT 221354Z AUTO 22022G28KT 10SM CLR 11/M01 A2974 RMK AO2 PK WND 21033/1321 SLP073 T01111006
KLWT 221254Z AUTO 23024G32KT 10SM BKN110 11/M01 A2975 RMK AO2 PK WND 24032/1252 SLP072 T01111006
KLWT 221154Z AUTO 23017G30KT 10SM FEW070 BKN110 11/M01 A2975 RMK AO2 PK WND 24034/1114 SLP068 60000 T01111011 10111 20056 56010
KLWT 221054Z AUTO 24020G29KT 10SM BKN120 11/M02 A2975 RMK AO2 PK WND 23029/1049 RAE04 SLP066 P0000 T01061017
KLWT 220954Z AUTO 23017G30KT 10SM -RA OVC065 09/M01 A2977 RMK AO2 PK WND 24030/0947 RAB49 SLP073 P0000 T00941006
KLWT 220854Z AUTO 23020G28KT 10SM BKN080 OVC100 08/M02 A2979 RMK AO2 PK WND 23029/0829 SLP082 T00831022 55012
KLWT 220754Z AUTO 22019G23KT 10SM CLR 07/M03 A2978 RMK AO2 SLP081 T00671028
KLWT 220654Z AUTO 24017KT 10SM CLR 06/M04 A2980 RMK AO2 SLP091 T00611039 401060011
KLWT 220554Z AUTO 23015G20KT 10SM CLR 06/M04 A2983 RMK AO2 SLP100 T00611044 10072 20011 58010